createdAt,value
2022-09-28T00:01:49.054Z,22.08
2022-09-28T00:04:53.496Z,16.55
2022-09-28T00:07:58.782Z,17.75
2022-09-28T00:11:06.506Z,17.08
2022-09-28T00:14:13.967Z,16.08
2022-09-28T00:17:21.369Z,18.83
2022-09-28T00:20:25.666Z,17.52
2022-09-28T00:23:30.240Z,10.98
2022-09-28T00:26:35.366Z,15.20
2022-09-28T00:29:39.965Z,19.20
2022-09-28T00:32:44.790Z,13.98
2022-09-28T00:36:00.173Z,12.13
2022-09-28T00:39:16.099Z,14.43
2022-09-28T00:45:36.566Z,18.77
2022-09-28T00:48:47.187Z,12.77
2022-09-28T00:51:53.446Z,12.02
2022-09-28T00:55:00.889Z,13.32
2022-09-28T00:58:12.586Z,12.77
2022-09-28T01:01:17.988Z,12.60
2022-09-28T01:07:35.926Z,20.70
2022-09-28T01:10:42.009Z,13.40
2022-09-28T01:13:53.005Z,14.70
2022-09-28T01:17:26.832Z,13.75
2022-09-28T01:20:58.055Z,14.52
2022-09-28T01:24:41.696Z,19.30
2022-09-28T01:28:12.596Z,14.57
2022-09-28T01:31:18.770Z,24.45
2022-09-28T01:34:36.624Z,32.05
2022-09-28T01:37:54.436Z,13.20
2022-09-28T01:41:03.542Z,11.80
2022-09-28T01:44:11.965Z,17.17
2022-09-28T01:47:23.494Z,21.08
2022-09-28T01:50:32.266Z,15.45
2022-09-28T01:53:42.605Z,13.32
2022-09-28T01:57:10.636Z,15.02
2022-09-28T02:00:17.284Z,15.80
2022-09-28T02:03:35.004Z,18.25
2022-09-28T02:06:54.179Z,11.43
2022-09-28T02:10:10.530Z,14.40
2022-09-28T02:13:27.174Z,15.98
2022-09-28T02:16:45.218Z,14.73
2022-09-28T02:19:51.880Z,12.88
2022-09-28T02:22:58.708Z,13.68
2022-09-28T02:26:09.022Z,15.00
2022-09-28T02:29:14.070Z,11.35
2022-09-28T02:32:22.845Z,14.57
2022-09-28T02:35:27.927Z,14.45
2022-09-28T02:38:34.122Z,10.73
2022-09-28T02:41:57.632Z,22.00
2022-09-28T02:45:38.156Z,12.45
2022-09-28T02:49:24.958Z,14.90
2022-09-28T02:52:48.260Z,14.95
2022-09-28T02:56:24.445Z,29.17
2022-09-28T03:00:09.554Z,14.95
2022-09-28T03:03:23.394Z,14.27
2022-09-28T03:07:09.946Z,18.90
2022-09-28T03:10:20.065Z,15.90
2022-09-28T03:13:29.309Z,12.95
2022-09-28T03:16:33.869Z,19.35
2022-09-28T03:19:41.598Z,13.57
2022-09-28T03:23:00.500Z,22.10
2022-09-28T03:26:20.675Z,16.00
2022-09-28T03:29:25.316Z,16.23
2022-09-28T03:32:35.788Z,14.50
2022-09-28T03:35:41.987Z,13.40
2022-09-28T03:38:49.715Z,19.30
2022-09-28T03:41:54.251Z,22.10
2022-09-28T03:44:59.115Z,16.05
2022-09-28T03:48:03.612Z,11.63
2022-09-28T03:51:15.061Z,14.70
2022-09-28T03:54:22.272Z,13.85
2022-09-28T03:57:26.785Z,27.20
2022-09-28T04:00:31.318Z,14.68
2022-09-28T04:03:39.445Z,12.05
2022-09-28T04:06:47.374Z,15.43
2022-09-28T04:09:52.132Z,18.10
2022-09-28T04:13:00.138Z,20.67
2022-09-28T04:16:13.455Z,14.35
2022-09-28T04:19:24.776Z,18.60
2022-09-28T04:22:45.379Z,17.52
2022-09-28T04:29:17.359Z,16.73
2022-09-28T04:32:35.759Z,15.15
2022-09-28T04:35:40.159Z,19.20
2022-09-28T04:38:53.747Z,15.10
2022-09-28T04:42:00.788Z,13.35
2022-09-28T04:48:14.030Z,12.38
2022-09-28T04:51:47.613Z,14.82
2022-09-28T04:54:52.640Z,12.03
2022-09-28T04:57:57.318Z,16.83
2022-09-28T05:01:04.256Z,17.20
2022-09-28T05:04:37.607Z,17.92
2022-09-28T05:07:48.652Z,13.48
2022-09-28T05:11:08.070Z,14.65
2022-09-28T05:14:13.612Z,16.30
2022-09-28T05:17:20.348Z,16.83
2022-09-28T05:20:56.848Z,13.25
2022-09-28T05:24:01.688Z,13.53
2022-09-28T05:27:08.554Z,13.23
2022-09-28T05:30:13.518Z,14.50
2022-09-28T05:33:37.199Z,20.40
2022-09-28T05:36:48.421Z,12.52
2022-09-28T05:39:58.332Z,14.27
2022-09-28T05:43:04.009Z,15.60
2022-09-28T05:46:09.822Z,13.82
2022-09-28T05:49:18.113Z,14.18
2022-09-28T05:52:24.375Z,18.98
2022-09-28T05:55:29.195Z,14.93
2022-09-28T05:58:33.604Z,17.67
2022-09-28T06:01:38.288Z,108.22
2022-09-28T06:04:45.982Z,29.75
2022-09-28T06:07:50.523Z,18.45
2022-09-28T06:11:02.357Z,17.38
2022-09-28T06:14:10.012Z,17.33
2022-09-28T06:17:14.704Z,20.60
2022-09-28T06:20:22.378Z,23.60
2022-09-28T06:23:46.869Z,14.70
2022-09-28T06:26:54.508Z,12.75
2022-09-28T09:07:27.269Z,15.57
2022-09-28T09:11:15.148Z,9.50
2022-09-28T09:14:55.318Z,18.30
2022-09-28T09:18:20.112Z,24.17
2022-09-28T09:21:42.805Z,9.88
2022-09-28T09:25:26.280Z,20.35
2022-09-28T09:29:01.939Z,16.75
2022-09-28T09:32:38.713Z,10.82
2022-09-28T09:35:46.811Z,20.42
2022-09-28T09:39:45.090Z,105.25
2022-09-28T09:43:20.105Z,523.78
2022-09-28T09:46:43.463Z,503.58
2022-09-28T09:50:31.484Z,321.92
2022-09-28T09:54:17.474Z,43.05
2022-09-28T09:57:44.089Z,71.90
2022-09-28T10:01:19.090Z,62.72
2022-09-28T10:04:49.312Z,21.50
2022-09-28T10:08:16.482Z,10.43
2022-09-28T10:11:33.439Z,14.18
2022-09-28T10:14:37.957Z,14.20
2022-09-28T10:17:45.745Z,13.00
2022-09-28T10:21:08.568Z,16.75
2022-09-28T10:25:01.422Z,13.95
2022-09-28T10:28:09.701Z,9.05
2022-09-28T10:31:40.748Z,7.88
2022-09-28T10:34:53.455Z,9.70
2022-09-28T10:38:09.187Z,8.80
2022-09-28T10:41:23.782Z,22.95
2022-09-28T10:44:36.696Z,16.05
2022-09-28T10:47:56.743Z,18.48
2022-09-28T10:51:07.276Z,16.60
2022-09-28T10:54:32.481Z,14.90
2022-09-28T10:57:40.740Z,19.27
2022-09-28T11:00:47.361Z,14.32
2022-09-28T11:04:03.258Z,21.60
2022-09-28T11:07:19.399Z,11.40
2022-09-28T11:10:33.521Z,18.73
2022-09-28T11:14:02.100Z,14.68
2022-09-28T11:17:19.955Z,62.85
2022-09-28T11:20:28.702Z,95.15
2022-09-28T11:23:36.952Z,85.50
2022-09-28T11:27:00.941Z,40.08
2022-09-28T11:30:24.607Z,34.05
2022-09-28T11:34:54.923Z,16.70
2022-09-28T11:38:19.433Z,26.50
2022-09-28T11:42:18.790Z,29.15
2022-09-28T11:45:51.063Z,22.88
2022-09-28T11:49:21.888Z,57.95
2022-09-28T11:52:53.041Z,55.97
2022-09-28T11:56:09.100Z,61.20
2022-09-28T12:02:41.087Z,34.20
2022-09-28T12:06:02.066Z,29.00
2022-09-28T12:09:19.056Z,38.13
2022-09-28T12:12:41.563Z,30.13
2022-09-28T12:16:23.435Z,38.10
2022-09-28T12:23:04.867Z,18.95
2022-09-28T12:26:53.200Z,30.33
2022-09-28T12:30:21.262Z,23.50
2022-09-28T12:33:26.092Z,19.67
2022-09-28T12:37:02.857Z,17.95
2022-09-28T12:40:23.298Z,14.13
2022-09-28T12:44:06.848Z,12.32
2022-09-28T12:47:26.241Z,23.63
2022-09-28T12:51:08.787Z,21.58
2022-09-28T12:54:28.398Z,14.60
2022-09-28T12:57:47.632Z,19.38
2022-09-28T13:01:22.964Z,25.50
2022-09-28T13:05:04.702Z,17.85
2022-09-28T13:08:32.555Z,20.63
2022-09-28T13:11:55.629Z,17.35
2022-09-28T13:15:06.428Z,27.60
2022-09-28T13:18:19.032Z,13.30
2022-09-28T13:21:32.558Z,14.95
2022-09-28T13:24:45.142Z,15.10
2022-09-28T13:27:56.106Z,13.05
2022-09-28T13:31:03.070Z,13.65
2022-09-28T13:34:11.875Z,18.65
2022-09-28T13:37:22.553Z,15.23
2022-09-28T13:41:05.264Z,14.30
2022-09-28T13:44:17.440Z,19.70
2022-09-28T13:47:43.453Z,14.25
2022-09-28T13:51:18.790Z,19.15
2022-09-28T13:55:07.085Z,12.55
2022-09-28T13:58:27.489Z,15.05
2022-09-28T14:01:42.713Z,12.40
2022-09-28T14:05:01.366Z,12.23
2022-09-28T14:08:09.970Z,9.98
2022-09-28T14:11:26.200Z,7.25
2022-09-28T14:14:52.284Z,18.25
2022-09-28T14:18:11.436Z,11.15
2022-09-28T14:21:18.500Z,15.82
2022-09-28T14:25:04.159Z,11.82
2022-09-28T14:28:23.986Z,14.70
2022-09-28T14:31:30.431Z,12.40
2022-09-28T14:34:48.371Z,13.50
2022-09-28T14:38:22.411Z,12.95
2022-09-28T14:41:35.405Z,7.45
2022-09-28T14:45:06.659Z,14.68
2022-09-28T14:48:21.301Z,10.43
2022-09-28T14:51:31.004Z,14.10
2022-09-28T14:54:47.099Z,8.32
2022-09-28T14:57:57.404Z,11.90
2022-09-28T15:01:06.901Z,9.63
2022-09-28T15:04:13.826Z,17.92
2022-09-28T15:07:30.543Z,14.05
2022-09-28T15:10:40.033Z,14.90
2022-09-28T15:13:45.437Z,12.32
2022-09-28T15:16:51.301Z,12.75
2022-09-28T15:20:14.175Z,16.67
2022-09-28T15:23:31.421Z,18.10
2022-09-28T15:26:36.958Z,8.80
2022-09-28T15:29:41.818Z,10.07
2022-09-28T15:32:46.682Z,15.07
2022-09-28T15:36:02.935Z,11.25
2022-09-28T15:39:23.642Z,12.45
2022-09-28T15:42:28.480Z,11.02
2022-09-28T15:45:38.908Z,12.55
2022-09-28T15:49:02.473Z,15.00
2022-09-28T15:52:07.544Z,9.48
2022-09-28T15:55:26.713Z,13.50
2022-09-28T15:58:31.423Z,14.90
2022-09-28T16:01:44.553Z,10.55
2022-09-28T16:04:56.334Z,9.18
2022-09-28T16:08:05.258Z,18.33
2022-09-28T16:11:37.803Z,14.00
2022-09-28T16:14:42.231Z,15.73
2022-09-28T16:17:52.961Z,9.32
2022-09-28T16:21:18.905Z,11.80
2022-09-28T16:24:31.257Z,7.35
2022-09-28T16:27:46.479Z,10.10
2022-09-28T16:31:03.265Z,10.87
2022-09-28T16:34:20.703Z,9.65
2022-09-28T16:37:32.866Z,11.27
2022-09-28T16:40:47.001Z,14.45
2022-09-28T16:43:57.728Z,10.82
2022-09-28T16:47:02.233Z,10.07
2022-09-28T16:50:11.489Z,8.95
2022-09-28T16:53:36.323Z,9.40
2022-09-28T16:56:42.292Z,6.78
2022-09-28T16:59:46.542Z,6.93
2022-09-28T17:02:51.965Z,6.80
2022-09-28T17:05:56.797Z,5.63
2022-09-28T17:09:07.617Z,4.18
2022-09-28T17:12:23.693Z,7.95
2022-09-28T17:15:28.172Z,7.00
2022-09-28T17:18:33.140Z,5.90
2022-09-28T17:21:37.733Z,7.30
2022-09-28T17:24:42.350Z,5.13
2022-09-28T17:27:50.552Z,5.32
2022-09-28T17:30:55.368Z,6.80
2022-09-28T17:34:02.865Z,10.23
2022-09-28T17:37:07.623Z,9.00
2022-09-28T17:40:25.065Z,6.38
2022-09-28T17:43:29.598Z,4.65
2022-09-28T17:46:37.282Z,6.38
2022-09-28T17:49:45.117Z,6.43
2022-09-28T17:52:53.212Z,4.40
2022-09-28T17:55:57.631Z,5.07
2022-09-28T17:59:04.645Z,6.40
2022-09-28T18:02:13.121Z,6.22
2022-09-28T18:05:17.797Z,4.72
2022-09-28T18:08:23.106Z,10.13
2022-09-28T18:11:28.669Z,5.75
2022-09-28T18:14:33.233Z,5.22
2022-09-28T18:17:38.195Z,6.88
2022-09-28T18:20:42.975Z,5.40
2022-09-28T18:23:47.270Z,14.77
2022-09-28T18:26:51.882Z,6.05
2022-09-28T18:29:56.506Z,7.13
2022-09-28T18:33:01.152Z,5.07
2022-09-28T18:36:07.041Z,5.13
2022-09-28T18:39:11.737Z,5.85
2022-09-28T18:42:16.439Z,7.68
2022-09-28T18:45:21.097Z,10.52
2022-09-28T18:48:28.547Z,5.50
2022-09-28T18:51:32.897Z,7.78
2022-09-28T18:54:37.403Z,7.00
2022-09-28T18:57:42.277Z,7.97
2022-09-28T19:00:47.278Z,6.43
2022-09-28T19:03:51.929Z,8.30
2022-09-28T19:06:59.692Z,11.93
2022-09-28T19:10:04.384Z,7.80
2022-09-28T19:13:08.895Z,18.63
2022-09-28T19:16:18.926Z,8.30
2022-09-28T19:19:23.366Z,8.75
2022-09-28T19:22:28.026Z,6.72
2022-09-28T19:25:32.810Z,6.90
2022-09-28T19:28:37.478Z,6.40
2022-09-28T19:31:44.063Z,4.63
2022-09-28T19:34:49.486Z,4.00
2022-09-28T19:37:54.648Z,5.57
2022-09-28T19:41:00.159Z,3.65
2022-09-28T19:44:07.362Z,7.30
2022-09-28T19:47:13.859Z,4.75
2022-09-28T19:50:18.069Z,4.00
2022-09-28T19:53:22.570Z,3.15
2022-09-28T19:56:27.132Z,8.20
2022-09-28T19:59:31.719Z,6.38
2022-09-28T20:02:36.561Z,4.00
2022-09-28T20:05:42.347Z,4.35
2022-09-28T20:08:46.799Z,7.57
2022-09-28T20:11:52.761Z,4.78
2022-09-28T20:14:57.123Z,5.40
2022-09-28T20:18:01.526Z,3.50
2022-09-28T20:21:11.424Z,6.70
2022-09-28T20:24:18.012Z,11.27
2022-09-28T20:27:26.145Z,15.63
2022-09-28T20:30:30.795Z,17.35
2022-09-28T20:33:37.065Z,9.18
2022-09-28T20:36:45.534Z,12.98
2022-09-28T20:39:50.248Z,10.98
2022-09-28T20:42:54.565Z,6.43
2022-09-28T20:46:00.038Z,5.55
2022-09-28T20:49:05.647Z,10.07
2022-09-28T20:52:10.268Z,9.45
2022-09-28T20:55:14.924Z,10.50
2022-09-28T20:58:19.533Z,13.38
2022-09-28T21:01:30.829Z,15.88
2022-09-28T21:04:35.415Z,19.50
2022-09-28T21:07:40.085Z,10.07
2022-09-28T21:10:45.859Z,9.88
2022-09-28T21:13:56.604Z,14.55
2022-09-28T21:17:00.914Z,26.30
2022-09-28T21:20:05.987Z,14.05
2022-09-28T21:23:10.436Z,8.45
2022-09-28T21:26:25.644Z,14.38
2022-09-28T21:29:30.125Z,15.80
2022-09-28T21:32:38.421Z,21.67
2022-09-28T21:38:50.198Z,19.30
2022-09-28T21:41:54.665Z,24.40
2022-09-28T21:45:01.364Z,24.27
2022-09-28T21:48:06.967Z,19.38
2022-09-28T21:51:15.385Z,46.45
2022-09-28T21:54:19.791Z,21.08
2022-09-28T21:57:24.622Z,22.65
2022-09-28T22:00:29.229Z,21.55
2022-09-28T22:03:36.299Z,22.95
2022-09-28T22:06:44.036Z,17.08
2022-09-28T22:09:52.778Z,15.98
2022-09-28T22:12:58.204Z,13.68
2022-09-28T22:16:03.127Z,18.80
2022-09-28T22:19:07.646Z,11.85
2022-09-28T22:22:12.095Z,16.83
2022-09-28T22:25:16.828Z,16.15
2022-09-28T22:28:21.412Z,19.58
2022-09-28T22:31:29.974Z,12.30
2022-09-28T22:34:35.188Z,11.25
2022-09-28T22:37:40.114Z,14.85
2022-09-28T22:40:53.170Z,17.23
2022-09-28T22:44:00.932Z,24.60
2022-09-28T22:47:05.784Z,22.58
2022-09-28T22:50:10.567Z,22.92
2022-09-28T22:53:15.930Z,16.48
2022-09-28T22:56:20.432Z,9.82
2022-09-28T22:59:25.164Z,6.65
2022-09-28T23:02:29.611Z,7.35
2022-09-28T23:05:34.588Z,5.65
2022-09-28T23:08:39.217Z,11.15
2022-09-28T23:11:43.539Z,8.23
2022-09-28T23:14:48.059Z,5.75
2022-09-28T23:17:56.142Z,4.13
2022-09-28T23:21:02.875Z,4.32
2022-09-28T23:24:08.567Z,3.10
2022-09-28T23:30:19.771Z,9.95
2022-09-28T23:33:24.498Z,2.30
2022-09-28T23:36:33.489Z,1.13
2022-09-28T23:39:41.200Z,9.68
2022-09-28T23:42:45.921Z,1.65
2022-09-28T23:45:50.494Z,1.95
2022-09-28T23:48:54.980Z,7.40
2022-09-28T23:51:59.792Z,5.35
2022-09-28T23:55:04.926Z,2.57
2022-09-28T23:58:09.650Z,2.03
